Pagrindinis puslapis
METAR-TAF:

METAR-TAF

Oro uostai :

Fort Richardson, Aliaska, Jungtinės Amerikos Valstijos

platuma: 61-15-45N, ilguma: 149-39-17W, Aukštis: 115 m

Dabartinis oras

Ataskaita buvo paskelbta 7 minutes, ne 21:48 UTC
Vėjas 5 kt iš Rytų/Pietryčių
Temperatūra 8°C
Drėgmė 81%
Slėgis 996 hPa
Matomumas: 16.1 km
Išsisklaidę debesys ne aukštis 3600 ft
Apsiniaukę ne aukštis 4600 ft

METAR: PAFR 212148Z AUTO 12005KT 10SM SCT036 OVC046 08/05 A2941 RMK AO2 SLP966

Laikas: 13:55 (21:55 UTC)


TAF: trūkstamas

Orai ataskaitas ir orų prognozės (METAR, TAF).

turimą stotys yra geltonos ir raudonos taškus žemėlapyje.

Perkelti pele per norėdami pamatyti stoties vardą.

Tada spustelėkite, norėdami matyti oro stebėjimo ir prognozės.

Norėdami pakeisti žemėlapį: spustelėkite ant žalios mygtukų su juodo kryžiaus žemyn,; žalią mygtuką su brūkšneliu, jei norite nutolinti; arba žalių rodyklių gretimoms žemėlapius.


METAR-TAF: